Time;durP1;ratioP1;P1;durP2;ratioP2;P2;SDS_P1;SDS_P2;PMS_P1;PMS_P2;Temp;Humidity;BMP_temperature;BMP_pressure;BME280_temperature;BME280_humidity;BME280_pressure;Samples;Min_cycle;Max_cycle;Signal;HPM_P1;HPM_P2
2022/11/11 00:01:55;;;;;;;1.88;0.93;;;;;;;15.01;79.85;101849.19;5003541;28;20081;-73
2022/11/11 00:04:39;;;;;;;2.42;0.82;;;;;;;14.96;80.23;101844.06;4992166;28;20070;-72
2022/11/11 00:07:22;;;;;;;0.88;0.70;;;;;;;14.80;80.58;101865.81;4993517;28;20482;-72
2022/11/11 00:10:07;;;;;;;1.55;0.90;;;;;;;14.91;80.82;101866.81;4998507;28;20057;-72
2022/11/11 00:12:51;;;;;;;4.03;1.13;;;;;;;15.07;80.15;101874.91;4995761;28;20541;-72
2022/11/11 00:15:37;;;;;;;4.82;1.10;;;;;;;14.98;80.45;101871.63;5002003;28;20044;-73
2022/11/11 00:27:27;;;;;;;1.98;1.05;;;;;;;14.89;80.96;101863.69;4998493;28;20573;-72
2022/11/11 00:30:11;;;;;;;2.35;1.13;;;;;;;14.91;81.00;101872.25;4992810;28;20048;-72
2022/11/11 00:32:56;;;;;;;8.45;1.70;;;;;;;15.09;80.70;101867.22;5004036;28;20051;-72
2022/11/11 00:35:52;;;;;;;2.83;0.93;;;;;;;15.06;80.41;101867.94;4996678;28;20510;-72
2022/11/11 00:38:45;;;;;;;2.30;1.10;;;;;;;15.02;80.43;101867.84;4995883;28;20121;-72
2022/11/11 00:41:29;;;;;;;3.05;1.55;;;;;;;14.99;80.25;101870.47;4991878;28;20591;-73
2022/11/11 00:44:13;;;;;;;2.55;1.17;;;;;;;14.96;80.93;101863.81;4990846;28;20053;-72
2022/11/11 00:53:07;;;;;;;2.70;1.10;;;;;;;14.81;81.58;101866.56;4992807;28;20192;-71
2022/11/11 00:55:51;;;;;;;3.38;1.75;;;;;;;14.91;81.19;101858.69;4993105;28;20057;-72
2022/11/11 00:58:35;;;;;;;4.47;1.42;;;;;;;15.07;80.70;101864.84;4991356;28;20077;-72
2022/11/11 01:01:19;;;;;;;4.00;1.70;;;;;;;14.87;81.26;101859.72;5001224;28;20137;-72
2022/11/11 01:04:04;;;;;;;2.67;1.55;;;;;;;15.00;80.92;101866.63;5007242;28;20056;-72
2022/11/11 01:06:51;;;;;;;2.78;1.30;;;;;;;14.91;81.10;101866.81;5003736;28;20421;-72
2022/11/11 01:09:35;;;;;;;1.75;1.35;;;;;;;14.96;81.62;101863.81;4992388;28;20545;-72
2022/11/11 01:12:19;;;;;;;4.60;1.52;;;;;;;14.96;81.34;101887.47;4996627;28;20080;-72
2022/11/11 01:15:03;;;;;;;2.30;1.48;;;;;;;14.97;81.33;101889.03;5005169;28;20096;-72
2022/11/11 01:17:47;;;;;;;2.58;1.33;;;;;;;15.00;81.35;101875.53;4996817;28;20092;-73
2022/11/11 01:20:32;;;;;;;3.58;1.20;;;;;;;15.10;80.88;101882.34;5008853;28;20052;-73
2022/11/11 01:23:15;;;;;;;1.98;1.27;;;;;;;15.14;80.89;101888.63;5000853;28;20389;-72
2022/11/11 01:26:21;;;;;;;5.35;2.15;;;;;;;15.07;81.17;101892.00;5004805;28;20057;-72
2022/11/11 01:29:05;;;;;;;2.53;1.75;;;;;;;15.10;80.83;101895.91;5011696;28;20112;-72
2022/11/11 01:31:49;;;;;;;3.13;1.48;;;;;;;15.15;80.76;101896.44;5004501;28;20100;-73
2022/11/11 01:34:33;;;;;;;3.65;1.77;;;;;;;15.13;80.47;101903.34;5010304;28;20064;-73
2022/11/11 01:37:17;;;;;;;4.75;1.83;;;;;;;15.24;80.73;101888.88;5011289;28;20052;-72
2022/11/11 01:40:02;;;;;;;6.95;2.15;;;;;;;15.15;80.36;101888.31;5005331;28;20323;-72
2022/11/11 01:42:46;;;;;;;3.05;1.50;;;;;;;15.06;81.14;101890.41;5004986;28;20093;-72
2022/11/11 01:45:51;;;;;;;2.22;1.60;;;;;;;15.10;81.24;101879.63;5002131;28;20239;-73
2022/11/11 01:52:03;;;;;;;9.02;2.30;;;;;;;14.73;82.85;101873.75;4996311;28;20049;-72
2022/11/11 01:55:04;;;;;;;8.60;2.03;;;;;;;14.82;82.65;101866.25;5002177;28;20414;-72
2022/11/11 01:57:56;;;;;;;2.95;1.42;;;;;;;14.84;82.93;101860.44;5034942;22;20176;-66
2022/11/11 02:00:41;;;;;;;6.30;2.00;;;;;;;14.88;82.28;101853.19;5006804;28;20413;-65
2022/11/11 02:03:28;;;;;;;3.63;1.90;;;;;;;14.86;82.21;101858.97;5009186;28;20052;-65
2022/11/11 02:06:13;;;;;;;4.50;2.08;;;;;;;14.92;81.92;101859.47;5019251;28;20047;-65
2022/11/11 02:08:57;;;;;;;10.32;2.10;;;;;;;15.13;81.60;101865.38;5013312;28;20063;-65
2022/11/11 02:14:48;;;;;;;3.88;1.45;;;;;;;14.90;82.88;101856.34;5020001;28;20079;-64
2022/11/11 02:17:33;;;;;;;4.15;1.92;;;;;;;14.86;82.78;101850.03;5019170;28;20107;-65
2022/11/11 02:20:24;;;;;;;2.90;1.67;;;;;;;14.89;82.57;101852.03;5008626;28;20052;-65
2022/11/11 02:23:10;;;;;;;13.52;2.40;;;;;;;14.78;82.68;101853.72;5020886;28;20100;-65
2022/11/11 02:26:15;;;;;;;5.82;2.03;;;;;;;14.96;82.10;101844.06;5004878;28;20057;-65
2022/11/11 02:29:02;;;;;;;5.40;2.00;;;;;;;14.56;83.21;101846.22;4929342;29;20059;-65
2022/11/11 02:31:46;;;;;;;4.47;2.08;;;;;;;14.50;83.87;101836.81;4939582;29;20439;-65
2022/11/11 02:34:31;;;;;;;2.80;1.60;;;;;;;14.70;82.92;101839.22;4929711;29;20546;-65
2022/11/11 02:37:19;;;;;;;4.93;2.65;;;;;;;14.79;82.78;101836.34;4929640;29;20071;-65
2022/11/11 02:40:07;;;;;;;3.22;1.70;;;;;;;14.66;82.95;101834.84;4915915;29;20059;-65
2022/11/11 02:42:52;;;;;;;6.65;2.05;;;;;;;14.69;82.89;101826.03;4929154;29;20047;-65
2022/11/11 02:45:35;;;;;;;2.67;1.40;;;;;;;14.60;83.06;101828.13;4948190;29;20468;-65
2022/11/11 02:48:20;;;;;;;4.07;1.58;;;;;;;14.47;83.61;101827.47;4946676;29;20551;-65
2022/11/11 02:51:05;;;;;;;3.55;1.20;;;;;;;14.54;83.42;101813.28;4933851;29;20497;-65
2022/11/11 02:53:49;;;;;;;7.45;1.45;;;;;;;14.44;83.32;101815.38;4922816;29;20094;-65
2022/11/11 02:59:38;;;;;;;2.20;1.65;;;;;;;14.53;82.96;101844.22;4930066;29;20087;-65
2022/11/11 03:02:26;;;;;;;4.05;1.73;;;;;;;14.67;83.04;101839.94;4937029;29;20491;-65
2022/11/11 03:05:10;;;;;;;2.95;1.67;;;;;;;14.55;83.23;101839.25;4965104;28;20117;-65
2022/11/11 03:07:54;;;;;;;2.05;1.48;;;;;;;14.67;83.14;101839.16;5018011;28;20537;-65
2022/11/11 03:10:38;;;;;;;9.73;1.50;;;;;;;14.72;82.38;101850.50;5016895;28;20176;-65
2022/11/11 03:13:22;;;;;;;3.25;1.42;;;;;;;14.80;82.45;101865.81;5027656;28;20044;-65
2022/11/11 03:17:38;;;;;;;4.45;1.88;;;;;;;14.85;82.02;101870.16;5024613;28;20722;-65
2022/11/11 03:19:10;;;;;;;5.72;1.85;;;;;;;14.74;82.10;101867.22;5022404;28;20080;-65
2022/11/11 03:21:54;;;;;;;2.45;1.40;;;;;;;14.77;82.49;101865.72;5027102;28;20068;-65
2022/11/11 03:27:41;;;;;;;3.80;1.08;;;;;;;14.75;82.60;101878.84;5015094;28;20084;-65
2022/11/11 03:30:25;;;;;;;3.78;1.55;;;;;;;14.70;82.83;101876.41;5014847;28;20135;-65
2022/11/11 03:33:09;;;;;;;4.30;1.75;;;;;;;14.56;83.09;101884.19;5014186;28;20080;-65
2022/11/11 03:35:53;;;;;;;5.60;1.50;;;;;;;14.44;83.42;101883.16;5020736;28;20123;-65
2022/11/11 03:38:37;;;;;;;2.40;1.40;;;;;;;14.43;83.27;101880.78;5010130;28;20046;-65
2022/11/11 03:41:21;;;;;;;8.00;1.98;;;;;;;14.43;83.54;101887.00;5025394;28;20056;-65
2022/11/11 03:44:05;;;;;;;2.78;1.60;;;;;;;14.51;83.18;101879.03;5026095;28;20149;-65
2022/11/11 03:46:49;;;;;;;3.22;1.50;;;;;;;14.44;83.21;101883.16;5007317;28;20571;-65
2022/11/11 03:49:33;;;;;;;4.03;1.75;;;;;;;14.57;82.44;101888.47;5012758;28;20405;-65
2022/11/11 03:52:17;;;;;;;3.17;1.23;;;;;;;14.26;83.72;101887.31;5027168;28;20578;-66
2022/11/11 03:55:01;;;;;;;4.93;1.80;;;;;;;14.36;83.77;101886.06;5008372;28;20164;-65
2022/11/11 03:57:46;;;;;;;1.75;1.17;;;;;;;14.56;83.06;101884.19;5011148;28;20048;-65
2022/11/11 04:00:29;;;;;;;2.80;1.85;;;;;;;14.25;83.52;101880.31;5007426;28;20084;-65
2022/11/11 04:12:25;;;;;;;2.63;1.70;;;;;;;14.50;82.81;101904.59;5003846;28;20053;-65
2022/11/11 04:18:12;;;;;;;2.80;1.60;;;;;;;14.30;83.73;101907.19;5012187;28;20106;-65
2022/11/11 04:23:59;;;;;;;5.93;1.92;;;;;;;14.45;83.03;101911.06;5000598;28;20540;-65
2022/11/11 04:26:43;;;;;;;6.95;2.17;;;;;;;14.35;83.30;101906.94;5010321;28;20068;-65
2022/11/11 04:29:28;;;;;;;2.58;1.55;;;;;;;14.50;83.04;101905.34;5009756;28;20332;-65
2022/11/11 04:35:18;;;;;;;4.75;2.38;;;;;;;14.34;83.40;101912.72;5023090;28;20039;-65
2022/11/11 04:41:07;;;;;;;6.07;2.67;;;;;;;14.26;83.88;101919.84;5015464;28;20053;-65
2022/11/11 04:46:57;;;;;;;3.95;2.17;;;;;;;14.31;83.67;101918.81;4998549;28;20072;-66
2022/11/11 04:49:41;;;;;;;4.53;2.03;;;;;;;14.20;84.02;101920.44;5010007;28;20053;-65
2022/11/11 04:52:25;;;;;;;5.75;2.35;;;;;;;14.23;84.30;101923.25;5011601;28;20044;-65
2022/11/11 04:58:12;;;;;;;5.03;2.33;;;;;;;14.25;84.09;101914.75;5009309;28;20044;-65
2022/11/11 05:00:57;;;;;;;3.58;1.80;;;;;;;14.28;83.40;101922.22;5005162;28;20380;-65
2022/11/11 05:03:41;;;;;;;7.70;2.28;;;;;;;14.19;83.94;101916.94;5004610;28;20096;-65
2022/11/11 05:09:27;;;;;;;7.25;1.95;;;;;;;14.12;84.49;101919.47;5008020;28;20059;-65
2022/11/11 05:12:12;;;;;;;9.43;2.67;;;;;;;14.16;84.64;101927.69;5015885;28;20418;-65
2022/11/11 05:21:19;;;;;;;4.65;2.53;;;;;;;13.87;85.33;101912.59;5001288;28;20049;-65
2022/11/11 05:27:07;;;;;;;5.53;2.45;;;;;;;14.09;84.15;101905.84;5009289;28;20049;-65
2022/11/11 05:29:52;;;;;;;4.40;2.17;;;;;;;13.99;84.25;101903.63;5010746;28;20128;-66
2022/11/11 05:32:37;;;;;;;8.55;2.53;;;;;;;13.84;84.94;101896.25;5006811;28;20121;-65
2022/11/11 05:35:22;;;;;;;4.32;2.35;;;;;;;13.89;85.01;101896.78;5010217;28;20044;-65
2022/11/11 05:38:21;;;;;;;7.32;3.10;;;;;;;13.97;84.31;101908.59;5005135;28;20328;-65
2022/11/11 05:41:05;;;;;;;5.20;2.67;;;;;;;13.83;84.67;101909.00;5009347;28;20516;-65
2022/11/11 05:43:50;;;;;;;3.25;2.13;;;;;;;13.79;84.67;101910.81;5001977;28;20065;-65
2022/11/11 05:46:33;;;;;;;4.30;2.20;;;;;;;14.05;83.98;101911.13;5009339;28;20421;-65
2022/11/11 05:49:18;;;;;;;8.05;2.80;;;;;;;14.15;83.84;101926.88;5008947;28;20536;-65
2022/11/11 05:52:03;;;;;;;3.08;2.20;;;;;;;14.08;83.41;101905.03;5003213;28;20048;-65
2022/11/11 05:54:47;;;;;;;9.82;4.10;;;;;;;13.98;83.42;101916.38;5003747;28;20416;-65
2022/11/11 05:57:31;;;;;;;4.35;2.08;;;;;;;14.03;83.82;101918.81;5010794;28;20099;-65
2022/11/11 06:00:17;;;;;;;7.25;2.60;;;;;;;14.12;83.82;101932.22;4997834;28;20053;-65
2022/11/11 06:03:05;;;;;;;4.65;2.40;;;;;;;13.97;84.01;101920.22;5005552;28;20560;-65
2022/11/11 06:05:49;;;;;;;4.40;2.50;;;;;;;13.96;84.28;101918.63;5021454;28;20583;-64
2022/11/11 06:08:33;;;;;;;4.53;2.58;;;;;;;13.97;84.24;101917.53;5009984;28;20103;-65
2022/11/11 06:11:17;;;;;;;7.30;2.80;;;;;;;13.95;84.08;101927.91;5021625;28;20060;-65
2022/11/11 06:14:01;;;;;;;6.10;2.30;;;;;;;13.95;84.81;101927.13;5004740;28;20069;-65
2022/11/11 06:16:46;;;;;;;4.78;2.10;;;;;;;14.08;84.01;101924.00;5008380;28;20111;-65
2022/11/11 06:19:30;;;;;;;6.85;3.05;;;;;;;14.13;84.01;101928.41;5013427;28;20418;-64
2022/11/11 06:22:54;;;;;;;5.47;2.13;;;;;;;14.14;84.12;101944.28;5005387;28;20516;-64
2022/11/11 06:28:21;;;;;;;7.47;2.50;;;;;;;14.09;84.38;101936.41;5014093;28;20037;-65
2022/11/11 06:31:06;;;;;;;7.75;3.15;;;;;;;13.95;84.98;101935.25;5008222;28;20476;-65
2022/11/11 06:33:50;;;;;;;6.53;2.50;;;;;;;13.85;85.73;101933.81;5009709;28;20469;-64
2022/11/11 06:36:34;;;;;;;6.40;3.15;;;;;;;13.79;85.89;101937.91;5007901;28;20418;-65
2022/11/11 06:39:18;;;;;;;7.35;3.05;;;;;;;13.85;86.07;101947.38;5007697;28;20105;-65
2022/11/11 06:42:02;;;;;;;7.40;2.90;;;;;;;13.93;85.73;101946.44;5006449;28;20115;-64
2022/11/11 06:44:46;;;;;;;5.32;2.92;;;;;;;13.86;85.99;101946.22;5000898;28;20100;-64
2022/11/11 06:47:30;;;;;;;5.10;2.65;;;;;;;13.88;86.37;101951.31;5007606;28;20044;-64
2022/11/11 06:50:15;;;;;;;6.40;3.25;;;;;;;13.99;86.12;101963.22;5011417;28;20148;-64
2022/11/11 06:53:10;;;;;;;9.40;3.10;;;;;;;13.86;86.16;101973.28;5011958;28;20211;-65
2022/11/11 06:55:54;;;;;;;4.97;2.63;;;;;;;13.88;86.18;101959.44;5005500;28;20056;-64
2022/11/11 06:58:38;;;;;;;7.78;3.33;;;;;;;13.84;86.73;101974.78;5014691;28;20044;-65
2022/11/11 07:01:22;;;;;;;8.65;3.60;;;;;;;13.74;86.94;101970.66;5028065;28;20099;-65
2022/11/11 07:04:06;;;;;;;7.88;3.58;;;;;;;13.74;87.34;101988.81;5016195;28;20480;-65
2022/11/11 07:06:50;;;;;;;10.05;4.10;;;;;;;13.97;86.38;101987.16;5005714;28;20160;-65
2022/11/11 07:09:57;;;;;;;8.73;3.40;;;;;;;13.84;87.26;101994.50;5023013;28;20575;-65
2022/11/11 07:12:41;;;;;;;8.82;3.60;;;;;;;13.87;87.07;102004.69;4919463;29;20138;-65
2022/11/11 07:15:25;;;;;;;5.43;2.65;;;;;;;13.98;86.38;101997.63;4931150;29;20047;-64
2022/11/11 07:18:10;;;;;;;9.88;3.88;;;;;;;13.69;87.88;101995.25;4933017;29;20055;-64
2022/11/11 07:20:54;;;;;;;11.32;3.92;;;;;;;13.40;89.11;101995.50;4932500;29;20121;-64
2022/11/11 07:23:41;;;;;;;7.40;3.40;;;;;;;13.64;89.42;102003.59;4931524;29;20114;-64
2022/11/11 07:26:25;;;;;;;8.95;3.78;;;;;;;13.53;88.86;102000.56;4926854;29;20114;-65
2022/11/11 07:29:09;;;;;;;8.27;3.13;;;;;;;13.61;88.88;101998.84;4932208;29;20130;-64
2022/11/11 07:31:53;;;;;;;7.93;3.75;;;;;;;13.53;89.34;102007.91;4938916;29;20050;-64
2022/11/11 07:34:37;;;;;;;12.13;3.47;;;;;;;13.72;88.43;102010.81;4941941;29;20042;-64
2022/11/11 07:37:21;;;;;;;6.18;3.30;;;;;;;13.81;88.42;102014.16;4931051;29;20408;-64
2022/11/11 07:40:06;;;;;;;6.85;3.75;;;;;;;13.81;87.65;102010.66;4931414;29;20131;-64
2022/11/11 07:42:50;;;;;;;9.45;3.28;;;;;;;13.98;87.16;102011.19;4929552;29;20115;-64
2022/11/11 07:45:34;;;;;;;9.73;3.85;;;;;;;13.68;89.06;102014.53;4931581;29;20045;-64
2022/11/11 07:48:18;;;;;;;9.55;3.83;;;;;;;13.80;88.99;102014.53;4936208;28;20055;-64
2022/11/11 07:51:03;;;;;;;7.78;3.33;;;;;;;13.73;89.34;102020.50;5019074;28;20099;-64
2022/11/11 07:53:47;;;;;;;9.90;4.35;;;;;;;13.70;90.03;102020.41;5015057;28;20460;-64
2022/11/11 07:56:31;;;;;;;8.55;3.65;;;;;;;13.76;89.52;102022.53;5056146;22;20179;-71
2022/11/11 07:59:14;;;;;;;6.63;3.67;;;;;;;13.77;89.72;102021.41;5008144;28;20068;-71
2022/11/11 08:01:58;;;;;;;8.57;3.55;;;;;;;13.58;90.89;102027.41;5008471;28;20132;-70
2022/11/11 08:04:43;;;;;;;16.10;4.18;;;;;;;13.82;90.08;102039.34;5002674;28;20077;-70
2022/11/11 08:07:27;;;;;;;8.43;4.05;;;;;;;13.79;90.00;102038.09;5008848;28;20056;-71
2022/11/11 08:10:11;;;;;;;9.48;3.92;;;;;;;13.90;89.93;102038.41;5011372;28;20130;-70
2022/11/11 08:16:01;;;;;;;8.52;4.35;;;;;;;13.79;90.85;102043.50;5007442;28;20564;-70
2022/11/11 08:18:45;;;;;;;9.20;3.90;;;;;;;13.81;90.92;102049.38;5010881;28;20465;-71
2022/11/11 08:21:29;;;;;;;12.98;4.82;;;;;;;13.62;91.33;102038.34;5011683;28;20048;-71
2022/11/11 08:24:13;;;;;;;10.25;3.38;;;;;;;13.82;91.28;102048.22;5010233;28;20048;-70
2022/11/11 08:26:57;;;;;;;8.70;4.40;;;;;;;13.86;90.83;102046.41;5010354;28;20084;-70
2022/11/11 08:29:41;;;;;;;9.02;4.32;;;;;;;13.93;90.64;102043.94;5012362;28;20099;-69
2022/11/11 08:32:25;;;;;;;10.32;4.38;;;;;;;13.91;90.48;102065.16;5009649;28;20100;-70
2022/11/11 08:35:09;;;;;;;6.32;3.78;;;;;;;13.93;90.58;102060.19;5014808;28;20048;-70
2022/11/11 08:37:54;;;;;;;13.77;4.65;;;;;;;13.86;90.63;102065.38;5009822;28;20078;-71
2022/11/11 08:40:38;;;;;;;10.73;5.00;;;;;;;13.77;91.34;102072.03;5008749;28;20040;-71
2022/11/11 08:43:22;;;;;;;7.28;4.03;;;;;;;13.81;91.55;102075.66;5010436;28;20184;-71
2022/11/11 08:46:06;;;;;;;11.15;4.72;;;;;;;13.83;91.10;102070.69;5011209;28;20445;-72
2022/11/11 08:48:50;;;;;;;12.73;4.53;;;;;;;13.84;91.20;102086.59;5004763;28;20528;-72
2022/11/11 08:51:33;;;;;;;8.02;4.57;;;;;;;13.90;90.59;102087.94;5011787;28;20096;-71
2022/11/11 08:54:17;;;;;;;10.98;5.18;;;;;;;14.07;89.69;102086.91;5010274;28;20392;-72
2022/11/11 08:57:02;;;;;;;10.20;4.38;;;;;;;13.98;89.48;102078.09;5007221;28;20128;-72
2022/11/11 08:59:46;;;;;;;8.32;4.28;;;;;;;14.09;89.52;102079.22;5010586;28;20048;-72
2022/11/11 09:02:30;;;;;;;12.18;4.30;;;;;;;14.24;89.38;102089.31;5008011;28;20095;-71
2022/11/11 09:05:14;;;;;;;7.82;3.80;;;;;;;14.30;88.61;102086.03;5001850;28;20099;-72
2022/11/11 09:08:06;;;;;;;11.73;4.25;;;;;;;14.40;88.16;102088.28;5011412;28;20560;-71
2022/11/11 09:10:50;;;;;;;9.82;4.18;;;;;;;14.23;88.38;102091.25;5007136;28;20044;-72
2022/11/11 09:13:34;;;;;;;7.53;4.07;;;;;;;14.25;88.47;102091.69;5009922;28;20044;-72
2022/11/11 09:16:18;;;;;;;10.82;5.45;;;;;;;14.30;88.42;102099.59;5009966;28;20131;-72
2022/11/11 09:19:02;;;;;;;11.45;4.70;;;;;;;14.15;88.30;102094.88;5005208;28;20052;-72
2022/11/11 09:21:46;;;;;;;8.45;4.10;;;;;;;14.24;88.50;102113.72;5010236;28;20045;-72
2022/11/11 09:24:30;;;;;;;11.98;4.40;;;;;;;14.28;88.24;102114.63;5008889;28;20092;-71
2022/11/11 09:27:14;;;;;;;9.25;4.40;;;;;;;14.18;88.00;102112.38;5010343;28;20558;-72
2022/11/11 09:29:58;;;;;;;10.60;4.20;;;;;;;14.03;89.25;102113.09;5010986;28;20052;-72
2022/11/11 09:32:42;;;;;;;8.45;4.25;;;;;;;14.12;89.11;102113.75;5011123;28;20049;-72
2022/11/11 09:35:26;;;;;;;9.20;4.32;;;;;;;14.15;88.67;102119.25;5009752;28;20107;-71
2022/11/11 09:38:10;;;;;;;9.98;4.05;;;;;;;13.90;89.77;102125.84;5000068;28;20120;-71
2022/11/11 09:41:20;;;;;;;12.50;3.70;;;;;;;13.95;90.21;102116.72;5009888;28;20057;-71
2022/11/11 09:44:10;;;;;;;9.30;4.10;;;;;;;13.97;90.08;102120.66;5005642;28;20037;-72
2022/11/11 09:47:12;;;;;;;7.65;3.85;;;;;;;13.96;90.41;102127.19;5011508;28;20048;-72
2022/11/11 09:50:20;;;;;;;12.20;4.72;;;;;;;13.98;90.61;102127.66;5011051;28;20064;-72
2022/11/11 09:53:23;;;;;;;13.93;4.82;;;;;;;14.10;90.02;102122.22;5010599;28;20048;-72
2022/11/11 09:56:12;;;;;;;15.38;4.97;;;;;;;14.27;89.58;102129.28;4992775;28;20084;-71
2022/11/11 09:59:07;;;;;;;9.27;4.03;;;;;;;14.23;89.03;102128.38;5010703;28;20052;-71
2022/11/11 10:01:57;;;;;;;9.25;4.45;;;;;;;14.21;89.43;102128.72;5011055;28;20061;-71
2022/11/11 10:04:50;;;;;;;10.25;3.55;;;;;;;14.35;89.10;102126.47;4998426;28;20045;-72
2022/11/11 10:07:45;;;;;;;7.88;3.88;;;;;;;14.28;88.75;102133.63;5009184;28;20096;-71
2022/11/11 10:10:42;;;;;;;9.13;4.25;;;;;;;14.20;89.10;102135.28;5010520;28;20049;-72
2022/11/11 10:13:35;;;;;;;9.75;4.30;;;;;;;14.12;89.54;102136.22;5004713;28;20453;-72
2022/11/11 10:16:57;;;;;;;11.60;4.18;;;;;;;14.09;89.65;102136.13;5013674;28;20076;-72
2022/11/11 10:20:13;;;;;;;8.75;3.60;;;;;;;13.98;89.83;102133.06;5010295;28;20088;-72
2022/11/11 10:23:13;;;;;;;9.60;4.22;;;;;;;14.17;89.47;102148.72;5012136;28;20092;-72
2022/11/11 10:26:04;;;;;;;10.68;4.50;;;;;;;14.26;88.96;102144.78;5006185;28;20077;-71
2022/11/11 10:28:51;;;;;;;14.00;5.38;;;;;;;14.33;88.34;102147.72;5011746;28;20052;-71
2022/11/11 10:31:36;;;;;;;8.77;3.63;;;;;;;14.35;88.13;102148.16;5013177;28;20052;-72
2022/11/11 10:34:20;;;;;;;16.05;5.30;;;;;;;14.29;87.90;102146.81;5009608;28;20068;-72
2022/11/11 10:37:17;;;;;;;10.32;4.57;;;;;;;14.27;87.43;102140.13;5008543;28;20048;-72
2022/11/11 10:40:28;;;;;;;11.18;4.93;;;;;;;14.26;87.19;102146.69;5011196;28;20056;-73
2022/11/11 10:43:23;;;;;;;13.32;5.35;;;;;;;14.18;87.31;102148.41;5008283;28;20045;-72
2022/11/11 10:46:20;;;;;;;10.82;4.57;;;;;;;14.20;86.70;102148.84;5005540;28;20041;-72
2022/11/11 10:49:17;;;;;;;12.40;4.85;;;;;;;14.09;87.09;102155.06;5012317;28;20112;-73
2022/11/11 10:52:12;;;;;;;12.77;4.55;;;;;;;14.23;86.74;102150.06;5012354;28;20100;-73
2022/11/11 10:55:06;;;;;;;8.20;3.80;;;;;;;14.27;86.41;102156.38;5006006;28;20108;-72
2022/11/11 10:58:11;;;;;;;13.98;4.90;;;;;;;14.21;85.83;102153.13;5012378;28;20131;-72
2022/11/11 11:00:58;;;;;;;8.38;3.75;;;;;;;14.10;87.07;102152.03;5012603;28;20076;-73
2022/11/11 11:03:49;;;;;;;10.48;4.57;;;;;;;14.23;86.67;102153.56;5009319;28;20092;-72
2022/11/11 11:06:36;;;;;;;12.98;4.38;;;;;;;14.34;86.26;102151.22;5010905;28;20099;-72
2022/11/11 11:09:48;;;;;;;14.70;4.93;;;;;;;14.13;86.02;102143.19;5009071;28;20060;-72
2022/11/11 11:12:51;;;;;;;8.50;4.05;;;;;;;14.09;86.24;102150.41;5022747;28;20049;-72
2022/11/11 11:15:40;;;;;;;10.27;4.65;;;;;;;14.04;85.88;102158.00;5006159;28;20458;-73
2022/11/11 11:18:25;;;;;;;11.40;4.97;;;;;;;14.10;85.98;102146.59;5006987;28;20801;-73
2022/11/11 11:21:10;;;;;;;9.25;4.03;;;;;;;14.24;85.84;102159.78;5009225;28;20414;-72
2022/11/11 11:23:54;;;;;;;9.45;4.03;;;;;;;14.20;85.03;102151.56;5005615;28;20041;-73
2022/11/11 11:26:46;;;;;;;12.82;5.13;;;;;;;14.10;85.37;102148.50;5010837;28;20151;-73
2022/11/11 11:29:32;;;;;;;13.07;5.18;;;;;;;14.15;85.54;102145.59;5004430;28;20065;-72
2022/11/11 11:32:20;;;;;;;9.38;5.13;;;;;;;14.16;85.21;102153.38;5007859;28;20044;-73
2022/11/11 11:35:04;;;;;;;8.43;4.03;;;;;;;14.26;85.17;102161.03;5008823;28;20064;-73
2022/11/11 11:37:50;;;;;;;12.32;4.80;;;;;;;14.18;85.34;102151.09;5002149;28;20528;-73
2022/11/11 11:40:43;;;;;;;11.07;4.53;;;;;;;14.25;85.20;102162.16;5011347;28;20122;-72
2022/11/11 11:43:35;;;;;;;14.07;4.45;;;;;;;14.32;85.10;102153.47;5015136;28;20108;-72
2022/11/11 11:46:38;;;;;;;12.65;4.90;;;;;;;14.20;84.53;102151.56;5001931;28;20045;-73
2022/11/11 11:49:57;;;;;;;10.40;4.90;;;;;;;14.22;85.06;102160.13;5000916;28;20049;-73
2022/11/11 11:53:10;;;;;;;12.32;4.65;;;;;;;14.14;85.78;102161.03;5007758;28;20049;-72
2022/11/11 11:56:02;;;;;;;7.97;3.85;;;;;;;13.90;86.33;102158.34;5008093;28;20045;-72
2022/11/11 11:58:55;;;;;;;11.93;4.28;;;;;;;14.13;85.27;102158.69;5010160;28;20474;-72
2022/11/11 12:02:14;;;;;;;11.50;4.05;;;;;;;14.17;84.79;102154.13;5008313;28;20614;-72
2022/11/11 12:05:21;;;;;;;11.70;4.78;;;;;;;13.93;86.24;102160.41;4987690;28;20045;-71
2022/11/11 12:08:43;;;;;;;8.68;4.40;;;;;;;14.06;85.42;102156.53;5004510;28;20088;-72
2022/11/11 12:11:33;;;;;;;11.43;4.07;;;;;;;14.09;85.38;102152.38;5008047;28;20496;-72
2022/11/11 12:14:46;;;;;;;8.43;3.75;;;;;;;14.15;85.46;102149.06;5017886;28;20045;-72
2022/11/11 12:17:45;;;;;;;9.88;4.65;;;;;;;14.29;85.26;102149.53;5011222;28;20042;-70
2022/11/11 12:20:43;;;;;;;10.75;3.92;;;;;;;14.37;84.97;102154.03;5015251;28;20527;-72
2022/11/11 12:24:12;;;;;;;9.68;3.78;;;;;;;14.31;84.44;102152.69;5009976;28;20448;-71
2022/11/11 12:27:07;;;;;;;11.40;4.28;;;;;;;14.43;84.63;102143.72;4961133;28;20065;-71
2022/11/11 12:29:54;;;;;;;14.95;4.53;;;;;;;14.35;84.31;102145.44;4971547;28;20097;-71
2022/11/11 12:32:53;;;;;;;10.60;3.97;;;;;;;14.50;83.87;102148.56;4967456;28;20054;-72
2022/11/11 12:35:59;;;;;;;9.75;3.78;;;;;;;14.59;83.44;102158.13;4965158;28;20419;-72
2022/11/11 12:38:52;;;;;;;8.30;3.92;;;;;;;14.54;83.00;102154.88;4965302;28;20052;-72
2022/11/11 12:41:45;;;;;;;7.15;3.22;;;;;;;14.54;83.33;102157.59;4965030;28;20660;-71
2022/11/11 12:45:27;;;;;;;11.55;4.47;;;;;;;14.56;83.16;102158.00;4965283;28;20093;-70
2022/11/11 12:48:32;;;;;;;6.75;3.58;;;;;;;14.46;83.27;102151.97;4951715;28;20096;-72
2022/11/11 12:51:35;;;;;;;5.80;2.97;;;;;;;14.45;83.27;102153.09;4964271;28;20542;-70
2022/11/11 12:54:21;;;;;;;8.10;3.55;;;;;;;14.46;83.59;102149.25;4971552;28;20754;-71
2022/11/11 12:57:28;;;;;;;6.07;2.72;;;;;;;14.51;83.64;102160.97;4984895;28;20168;-72
2022/11/11 13:00:20;;;;;;;5.55;2.78;;;;;;;14.38;83.89;102152.88;4991010;28;20044;-71
2022/11/11 13:03:29;;;;;;;6.88;3.78;;;;;;;14.42;84.21;102159.19;5008636;28;20099;-71
2022/11/11 13:06:22;;;;;;;4.97;2.70;;;;;;;14.53;84.24;102158.72;5007525;28;20044;-71
2022/11/11 13:09:18;;;;;;;5.70;2.97;;;;;;;14.62;83.89;102156.63;5001082;28;20060;-71
2022/11/11 13:12:48;;;;;;;8.20;3.38;;;;;;;14.58;84.08;102161.16;5009274;28;20104;-71
2022/11/11 13:15:32;;;;;;;8.77;4.05;;;;;;;14.53;84.35;102158.72;4970870;28;20117;-71
2022/11/11 13:18:25;;;;;;;7.78;3.35;;;;;;;14.37;85.15;102159.44;5005982;28;20048;-72
2022/11/11 13:21:15;;;;;;;7.43;3.50;;;;;;;14.42;85.18;102167.31;5000506;28;20041;-72
2022/11/11 13:23:59;;;;;;;6.57;3.17;;;;;;;14.57;84.84;102170.47;5006934;28;20045;-70
2022/11/11 13:26:53;;;;;;;5.85;2.92;;;;;;;14.53;84.61;102172.28;4999925;28;20052;-72
2022/11/11 13:29:41;;;;;;;6.63;3.22;;;;;;;14.35;84.92;102175.25;5008448;28;20048;-71
2022/11/11 13:32:33;;;;;;;6.30;3.20;;;;;;;14.43;84.92;102171.63;5009821;28;20067;-72
2022/11/11 13:35:35;;;;;;;5.80;2.70;;;;;;;14.45;84.49;102169.38;5010824;28;20513;-72
2022/11/11 13:38:33;;;;;;;6.88;3.17;;;;;;;14.63;84.48;102177.22;4999939;28;20061;-72
2022/11/11 13:41:39;;;;;;;4.85;2.65;;;;;;;14.72;84.02;102177.84;5011411;28;20112;-72
2022/11/11 13:44:31;;;;;;;8.95;3.22;;;;;;;14.50;85.16;102173.75;5005216;28;20049;-71
2022/11/11 13:47:28;;;;;;;10.93;3.28;;;;;;;14.25;86.31;102183.81;5005482;28;20069;-71
2022/11/11 13:50:28;;;;;;;6.55;3.42;;;;;;;14.32;86.72;102184.06;5005090;28;20056;-71
2022/11/11 13:53:34;;;;;;;9.60;3.50;;;;;;;14.26;87.39;102181.91;5017875;28;20048;-71
2022/11/11 13:56:31;;;;;;;10.30;4.90;;;;;;;14.30;87.56;102189.03;5002072;28;20449;-70
2022/11/11 13:59:31;;;;;;;6.22;3.28;;;;;;;14.53;86.76;102188.53;5015491;22;20112;-66
2022/11/11 14:02:21;;;;;;;8.77;3.55;;;;;;;14.57;86.81;102192.16;4980363;28;20100;-65
2022/11/11 14:05:05;;;;;;;8.48;3.63;;;;;;;14.59;86.30;102189.88;4997042;28;20532;-65
2022/11/11 14:07:53;;;;;;;6.78;3.80;;;;;;;14.58;86.76;102185.56;4991771;28;20053;-66
2022/11/11 14:10:37;;;;;;;7.85;3.65;;;;;;;14.55;86.91;102189.00;4990384;28;20128;-64
2022/11/11 14:13:22;;;;;;;6.53;3.88;;;;;;;14.57;87.11;102184.00;4994728;28;20116;-64
2022/11/11 14:16:09;;;;;;;8.95;3.78;;;;;;;14.56;87.34;102193.25;4984953;28;20482;-64
2022/11/11 14:18:54;;;;;;;10.00;4.30;;;;;;;14.63;86.54;102190.78;4998370;28;20064;-64
2022/11/11 14:21:46;;;;;;;10.48;4.10;;;;;;;14.73;86.47;102191.06;4990963;28;20049;-64